Time;durP1;ratioP1;P1;durP2;ratioP2;P2;SDS_P1;SDS_P2;PMS_P1;PMS_P2;Temp;Humidity;BMP_temperature;BMP_pressure;BME280_temperature;BME280_humidity;BME280_pressure;Samples;Min_cycle;Max_cycle;Signal;HPM_P1;HPM_P2
2023/12/26 00:01:13;;;;;;;17.73;8.52;;;;;;;;;;5051264;28;20032;-83
2023/12/26 00:03:38;;;;;;;15.52;8.93;;;;;;;;;;5049525;28;20017;-82
2023/12/26 00:06:03;;;;;;;15.18;9.82;;;;;;;;;;5051376;28;20085;-83
2023/12/26 00:08:29;;;;;;;14.93;8.55;;;;;;;;;;5051894;28;20021;-83
2023/12/26 00:10:54;;;;;;;18.10;9.25;;;;;;;;;;5052099;28;20080;-82
2023/12/26 00:13:19;;;;;;;10.25;5.78;;;;;;;;;;5052039;28;20075;-82
2023/12/26 00:15:45;;;;;;;11.35;7.05;;;;;;;;;;5034367;28;20036;-83
2023/12/26 00:18:12;;;;;;;13.75;7.35;;;;;;;;;;5052179;28;20077;-83
2023/12/26 00:20:42;;;;;;;18.02;9.25;;;;;;;;;;5052308;28;20006;-83
2023/12/26 00:23:08;;;;;;;15.13;7.40;;;;;;;;;;5050931;28;20056;-82
2023/12/26 00:25:33;;;;;;;17.95;9.77;;;;;;;;;;5034329;28;20021;-83
2023/12/26 00:27:59;;;;;;;14.88;7.85;;;;;;;;;;5051615;28;20028;-83
2023/12/26 00:30:34;;;;;;;18.92;9.30;;;;;;;;;;5050883;28;20037;-83
2023/12/26 00:33:00;;;;;;;20.15;9.10;;;;;;;;;;5034273;28;20024;-83
2023/12/26 00:35:25;;;;;;;19.10;9.13;;;;;;;;;;5050517;28;20045;-83
2023/12/26 00:37:50;;;;;;;13.88;7.45;;;;;;;;;;5052917;28;20089;-83
2023/12/26 00:40:16;;;;;;;15.10;8.57;;;;;;;;;;5033899;28;20029;-83
2023/12/26 00:42:43;;;;;;;14.48;8.20;;;;;;;;;;5053136;28;20077;-82
2023/12/26 00:45:09;;;;;;;21.08;9.13;;;;;;;;;;5034745;28;20085;-83
2023/12/26 00:47:34;;;;;;;18.15;10.00;;;;;;;;;;5051217;28;20022;-82
2023/12/26 00:49:59;;;;;;;18.52;9.38;;;;;;;;;;5033941;28;20032;-83
2023/12/26 00:52:35;;;;;;;16.38;8.02;;;;;;;;;;5052930;28;20077;-83
2023/12/26 00:55:00;;;;;;;13.57;7.45;;;;;;;;;;5052449;28;20571;-83
2023/12/26 00:57:26;;;;;;;14.75;7.13;;;;;;;;;;5039452;28;20021;-83
2023/12/26 00:59:53;;;;;;;12.88;6.72;;;;;;;;;;5051841;28;20104;-82
2023/12/26 01:02:21;;;;;;;15.32;6.55;;;;;;;;;;5035454;28;20021;-83
2023/12/26 01:04:46;;;;;;;13.20;6.38;;;;;;;;;;5051603;28;20541;-83
2023/12/26 01:07:12;;;;;;;17.08;8.05;;;;;;;;;;5051265;28;20018;-83
2023/12/26 01:09:37;;;;;;;25.73;12.25;;;;;;;;;;5051827;28;20020;-83
2023/12/26 01:12:03;;;;;;;20.45;10.93;;;;;;;;;;5052529;28;20022;-83
2023/12/26 01:14:28;;;;;;;15.48;7.72;;;;;;;;;;5035118;28;20113;-83
2023/12/26 01:16:53;;;;;;;17.08;7.30;;;;;;;;;;5052175;28;20061;-83
2023/12/26 01:19:19;;;;;;;12.27;7.15;;;;;;;;;;5052124;28;20060;-83
2023/12/26 01:21:44;;;;;;;17.95;8.70;;;;;;;;;;5052132;28;20439;-83
2023/12/26 01:24:09;;;;;;;15.93;9.10;;;;;;;;;;5052224;28;20021;-82
2023/12/26 01:26:36;;;;;;;14.18;7.22;;;;;;;;;;5052699;28;20065;-82
2023/12/26 01:29:04;;;;;;;16.05;8.02;;;;;;;;;;5034725;28;20024;-82
2023/12/26 01:31:29;;;;;;;15.88;7.53;;;;;;;;;;5051684;28;20040;-82
2023/12/26 01:33:55;;;;;;;17.33;9.93;;;;;;;;;;5017730;28;20026;-82
2023/12/26 01:36:20;;;;;;;15.40;7.45;;;;;;;;;;5034538;28;20051;-83
2023/12/26 01:38:45;;;;;;;13.70;7.63;;;;;;;;;;5034762;28;20584;-83
2023/12/26 01:41:11;;;;;;;14.38;6.50;;;;;;;;;;5036594;28;20044;-82
2023/12/26 01:43:36;;;;;;;14.00;6.70;;;;;;;;;;5054031;28;20009;-82
2023/12/26 01:46:03;;;;;;;17.35;8.10;;;;;;;;;;5037791;28;20033;-82
2023/12/26 01:48:29;;;;;;;12.70;6.63;;;;;;;;;;5053750;28;20021;-82
2023/12/26 01:50:54;;;;;;;13.90;6.88;;;;;;;;;;5053686;28;20093;-82
2023/12/26 01:53:20;;;;;;;19.63;9.23;;;;;;;;;;5053732;28;20003;-83
2023/12/26 01:55:46;;;;;;;14.65;8.00;;;;;;;;;;5054335;28;20014;-83
2023/12/26 01:58:11;;;;;;;14.85;7.45;;;;;;;;;;5056623;28;20005;-82
2023/12/26 02:00:36;;;;;;;17.30;8.27;;;;;;;;;;5057154;28;20049;-83
2023/12/26 02:03:02;;;;;;;17.00;7.55;;;;;;;;;;5056869;28;20020;-83
2023/12/26 02:05:27;;;;;;;14.18;7.88;;;;;;;;;;5055674;28;20014;-83
2023/12/26 02:07:53;;;;;;;16.42;8.10;;;;;;;;;;5057360;28;20005;-82
2023/12/26 02:10:19;;;;;;;13.20;6.60;;;;;;;;;;5055394;28;20005;-82
2023/12/26 02:12:44;;;;;;;18.10;7.40;;;;;;;;;;5056466;28;20044;-82
2023/12/26 02:15:10;;;;;;;15.85;5.57;;;;;;;;;;5057729;28;20017;-83
2023/12/26 02:17:35;;;;;;;13.57;6.93;;;;;;;;;;5056859;28;20017;-83
2023/12/26 02:20:07;;;;;;;22.00;10.27;;;;;;;;;;5057301;28;20005;-83
2023/12/26 02:22:32;;;;;;;16.40;8.93;;;;;;;;;;5039928;28;20048;-82
2023/12/26 02:24:58;;;;;;;15.55;7.25;;;;;;;;;;5039515;28;20041;-84
2023/12/26 02:27:24;;;;;;;24.88;11.25;;;;;;;;;;5057649;28;20128;-82
2023/12/26 02:29:57;;;;;;;24.52;11.43;;;;;;;;;;5056531;28;20017;-83
2023/12/26 02:32:23;;;;;;;22.80;11.45;;;;;;;;;;5057231;28;20028;-83
2023/12/26 02:34:50;;;;;;;13.98;6.45;;;;;;;;;;5040080;28;20081;-83
2023/12/26 02:37:15;;;;;;;28.67;15.32;;;;;;;;;;5039877;28;20060;-83
2023/12/26 02:39:43;;;;;;;36.33;21.27;;;;;;;;;;5057564;28;20013;-82
2023/12/26 02:42:08;;;;;;;16.50;7.72;;;;;;;;;;5057168;28;20013;-83
2023/12/26 02:44:34;;;;;;;15.68;7.40;;;;;;;;;;5057259;28;20044;-83
2023/12/26 02:46:59;;;;;;;14.40;9.30;;;;;;;;;;5056387;28;20116;-83
2023/12/26 02:49:24;;;;;;;14.50;8.05;;;;;;;;;;5057069;28;20017;-83
2023/12/26 02:51:49;;;;;;;15.63;9.43;;;;;;;;;;5057161;28;20021;-83
2023/12/26 02:54:15;;;;;;;13.00;6.97;;;;;;;;;;5056015;28;20238;-83
2023/12/26 02:56:40;;;;;;;13.82;6.68;;;;;;;;;;5055594;28;20017;-83
2023/12/26 02:59:05;;;;;;;13.18;7.40;;;;;;;;;;5057101;28;20009;-83
2023/12/26 03:01:31;;;;;;;12.18;6.45;;;;;;;;;;5056214;28;20043;-83
2023/12/26 03:03:56;;;;;;;13.80;6.43;;;;;;;;;;5057124;28;20025;-82
2023/12/26 03:06:21;;;;;;;9.68;5.13;;;;;;;;;;5057021;28;20014;-82
2023/12/26 03:08:46;;;;;;;16.13;8.38;;;;;;;;;;5056909;28;20077;-83
2023/12/26 03:11:12;;;;;;;19.77;7.68;;;;;;;;;;5056699;28;20118;-82
2023/12/26 03:13:37;;;;;;;13.43;7.22;;;;;;;;;;5057357;28;20034;-82
2023/12/26 03:16:02;;;;;;;10.93;5.50;;;;;;;;;;5056411;28;20025;-82
2023/12/26 03:18:28;;;;;;;15.50;6.65;;;;;;;;;;5056185;28;20021;-83
2023/12/26 03:20:53;;;;;;;12.25;5.53;;;;;;;;;;5056262;28;20024;-82
2023/12/26 03:23:18;;;;;;;10.98;6.25;;;;;;;;;;5057011;28;20013;-83
2023/12/26 03:25:44;;;;;;;8.07;4.18;;;;;;;;;;5057009;28;20040;-83
2023/12/26 03:28:09;;;;;;;13.73;6.55;;;;;;;;;;5057043;28;20036;-83
2023/12/26 03:30:34;;;;;;;13.30;7.15;;;;;;;;;;5056752;28;20093;-82
2023/12/26 03:32:59;;;;;;;12.93;6.97;;;;;;;;;;5057023;28;20016;-83
2023/12/26 03:35:25;;;;;;;11.93;6.43;;;;;;;;;;5056554;28;20021;-82
2023/12/26 03:37:51;;;;;;;12.30;5.38;;;;;;;;;;5023250;28;20068;-83
2023/12/26 03:40:16;;;;;;;11.73;6.10;;;;;;;;;;5056811;28;20001;-82
2023/12/26 03:42:42;;;;;;;16.10;7.88;;;;;;;;;;5056750;28;20085;-82
2023/12/26 03:45:08;;;;;;;9.80;5.65;;;;;;;;;;5039403;28;20013;-83
2023/12/26 03:47:33;;;;;;;12.82;7.60;;;;;;;;;;5039648;28;20025;-83
2023/12/26 03:49:58;;;;;;;11.45;6.43;;;;;;;;;;5056664;28;20010;-82
2023/12/26 03:52:24;;;;;;;16.25;7.28;;;;;;;;;;5056249;28;20055;-82
2023/12/26 03:54:49;;;;;;;7.22;4.25;;;;;;;;;;5039152;28;20009;-82
2023/12/26 03:57:14;;;;;;;13.15;6.13;;;;;;;;;;5056498;28;20042;-83
2023/12/26 03:59:41;;;;;;;13.68;6.43;;;;;;;;;;5056482;28;20005;-83
2023/12/26 04:02:06;;;;;;;11.45;6.57;;;;;;;;;;5056540;28;20006;-83
2023/12/26 04:04:31;;;;;;;11.52;6.32;;;;;;;;;;5038979;28;20036;-83
2023/12/26 04:06:56;;;;;;;13.10;5.97;;;;;;;;;;5055810;28;20029;-83
2023/12/26 04:09:34;;;;;;;10.57;4.88;;;;;;;;;;5031438;28;20018;-82
2023/12/26 04:11:59;;;;;;;9.30;5.13;;;;;;;;;;5051231;28;20009;-83
2023/12/26 04:14:25;;;;;;;9.70;4.72;;;;;;;;;;5051621;28;20024;-82
2023/12/26 04:17:00;;;;;;;9.80;3.70;;;;;;;;;;5050897;28;20021;-81
2023/12/26 04:19:25;;;;;;;11.70;6.15;;;;;;;;;;5050288;28;20068;-81
2023/12/26 04:21:51;;;;;;;12.43;5.82;;;;;;;;;;5033194;28;20017;-82
2023/12/26 04:24:16;;;;;;;10.00;5.15;;;;;;;;;;5051365;28;20021;-81
2023/12/26 04:26:42;;;;;;;10.57;5.15;;;;;;;;;;5032804;28;20021;-82
2023/12/26 04:29:08;;;;;;;11.23;5.70;;;;;;;;;;5051732;28;20043;-81
2023/12/26 04:31:33;;;;;;;12.98;4.80;;;;;;;;;;5033101;28;20052;-82
2023/12/26 04:33:58;;;;;;;8.35;4.78;;;;;;;;;;5050014;28;20021;-81
2023/12/26 04:36:24;;;;;;;12.25;5.50;;;;;;;;;;5051022;28;20035;-82
2023/12/26 04:39:05;;;;;;;10.68;5.45;;;;;;;;;;5050881;28;20047;-83
2023/12/26 04:41:32;;;;;;;12.05;5.38;;;;;;;;;;5051188;28;20025;-81
2023/12/26 04:43:57;;;;;;;14.20;6.63;;;;;;;;;;5050907;28;20021;-81
2023/12/26 04:46:23;;;;;;;10.35;5.28;;;;;;;;;;5032993;28;20495;-82
2023/12/26 04:48:48;;;;;;;9.73;5.18;;;;;;;;;;5033017;28;20059;-82
2023/12/26 04:51:17;;;;;;;11.82;6.35;;;;;;;;;;5050967;28;20022;-82
2023/12/26 04:53:43;;;;;;;6.38;4.22;;;;;;;;;;5051582;28;20009;-82
2023/12/26 04:56:09;;;;;;;10.43;6.47;;;;;;;;;;5032632;28;20056;-82
2023/12/26 04:58:34;;;;;;;12.35;7.20;;;;;;;;;;5050932;28;20014;-82
2023/12/26 05:01:00;;;;;;;14.60;8.45;;;;;;;;;;5014342;28;20065;-82
2023/12/26 05:03:25;;;;;;;14.85;7.90;;;;;;;;;;5051007;28;20009;-82
2023/12/26 05:05:51;;;;;;;15.43;7.57;;;;;;;;;;5031853;28;20051;-82
2023/12/26 05:08:16;;;;;;;13.80;7.15;;;;;;;;;;5050078;28;20013;-82
2023/12/26 05:10:41;;;;;;;14.88;6.10;;;;;;;;;;5031471;28;20404;-82
2023/12/26 05:13:07;;;;;;;15.07;7.90;;;;;;;;;;5035625;28;20001;-82
2023/12/26 05:15:32;;;;;;;19.75;9.07;;;;;;;;;;5051348;28;20002;-82
2023/12/26 05:17:57;;;;;;;19.10;9.68;;;;;;;;;;5030568;28;20022;-82
2023/12/26 05:20:23;;;;;;;14.55;9.10;;;;;;;;;;5047394;28;20577;-82
2023/12/26 05:22:48;;;;;;;15.88;8.88;;;;;;;;;;5031303;28;20064;-82
2023/12/26 05:25:13;;;;;;;15.23;7.93;;;;;;;;;;5031244;28;20009;-82
2023/12/26 05:27:39;;;;;;;18.05;8.20;;;;;;;;;;5031288;28;20014;-82
2023/12/26 05:30:05;;;;;;;17.25;9.40;;;;;;;;;;5050571;28;20251;-82
2023/12/26 05:32:30;;;;;;;19.52;9.85;;;;;;;;;;5049024;28;20040;-82
2023/12/26 05:34:55;;;;;;;20.30;10.40;;;;;;;;;;5034710;28;20116;-82
2023/12/26 05:37:21;;;;;;;20.75;9.98;;;;;;;;;;5035019;28;20041;-82
2023/12/26 05:39:47;;;;;;;17.45;10.50;;;;;;;;;;5035314;28;20017;-82
2023/12/26 05:42:12;;;;;;;25.92;11.90;;;;;;;;;;5053413;28;20024;-82
2023/12/26 05:44:38;;;;;;;25.27;12.07;;;;;;;;;;5036039;28;20037;-82
2023/12/26 05:47:05;;;;;;;25.27;13.88;;;;;;;;;;5053832;28;20029;-82
2023/12/26 05:49:31;;;;;;;21.48;12.35;;;;;;;;;;5033972;28;20017;-83
2023/12/26 05:51:56;;;;;;;38.65;18.45;;;;;;;;;;5034673;28;20025;-82
2023/12/26 05:54:22;;;;;;;34.05;17.70;;;;;;;;;;5053712;28;20029;-82
2023/12/26 05:56:48;;;;;;;106.35;51.25;;;;;;;;;;5037615;28;20005;-82
2023/12/26 05:59:14;;;;;;;22.92;13.35;;;;;;;;;;5052913;28;20037;-82
2023/12/26 06:01:44;;;;;;;53.13;27.10;;;;;;;;;;5017965;28;20068;-82
2023/12/26 06:04:09;;;;;;;32.65;17.40;;;;;;;;;;5053442;28;20032;-82
2023/12/26 06:06:34;;;;;;;32.20;17.15;;;;;;;;;;5053543;28;20009;-82
2023/12/26 06:09:00;;;;;;;40.40;21.60;;;;;;;;;;5037121;28;20018;-82
2023/12/26 06:11:25;;;;;;;59.78;36.60;;;;;;;;;;5037630;28;20041;-82
2023/12/26 06:13:51;;;;;;;28.80;15.25;;;;;;;;;;5036756;28;20013;-82
2023/12/26 06:16:16;;;;;;;25.77;15.02;;;;;;;;;;5049126;28;20031;-82
2023/12/26 06:18:41;;;;;;;15.10;9.32;;;;;;;;;;5037613;28;20047;-82
2023/12/26 06:21:07;;;;;;;33.03;19.88;;;;;;;;;;5043821;28;20013;-82
2023/12/26 06:23:32;;;;;;;22.05;13.18;;;;;;;;;;5053631;28;20013;-82
2023/12/26 06:25:57;;;;;;;26.73;15.63;;;;;;;;;;5053720;28;20503;-82
2023/12/26 06:28:23;;;;;;;22.90;13.80;;;;;;;;;;5053485;28;20048;-82
2023/12/26 06:30:49;;;;;;;18.13;10.57;;;;;;;;;;5035779;28;20025;-82
2023/12/26 06:33:14;;;;;;;17.65;10.32;;;;;;;;;;5053851;28;20498;-82
2023/12/26 06:35:40;;;;;;;15.32;8.25;;;;;;;;;;5052695;28;20056;-81
2023/12/26 06:38:12;;;;;;;13.88;7.68;;;;;;;;;;5035522;28;20010;-82
2023/12/26 06:40:37;;;;;;;15.77;7.53;;;;;;;;;;5054255;28;20021;-82
2023/12/26 06:43:03;;;;;;;15.88;8.40;;;;;;;;;;5035103;28;20025;-82
2023/12/26 06:45:28;;;;;;;19.70;10.82;;;;;;;;;;5017817;28;20033;-81
2023/12/26 06:47:54;;;;;;;17.55;10.88;;;;;;;;;;5051058;28;20088;-83
2023/12/26 06:50:19;;;;;;;12.25;6.80;;;;;;;;;;5052289;28;20064;-82
2023/12/26 06:52:44;;;;;;;20.33;12.77;;;;;;;;;;5053285;28;19998;-82
2023/12/26 06:55:09;;;;;;;28.40;15.38;;;;;;;;;;5029206;28;20462;-82
2023/12/26 06:57:35;;;;;;;31.83;18.42;;;;;;;;;;5035010;28;20022;-82
2023/12/26 07:00:00;;;;;;;36.95;22.85;;;;;;;;;;5053190;28;20009;-82
2023/12/26 07:02:25;;;;;;;30.63;17.70;;;;;;;;;;5052655;28;20021;-82
2023/12/26 07:04:51;;;;;;;32.58;19.20;;;;;;;;;;5032905;28;20396;-82
2023/12/26 07:07:17;;;;;;;22.98;12.80;;;;;;;;;;5047541;28;20048;-82
2023/12/26 07:09:49;;;;;;;42.22;25.77;;;;;;;;;;5051687;28;20009;-83
2023/12/26 07:12:14;;;;;;;31.23;17.08;;;;;;;;;;5032085;28;20097;-82
2023/12/26 07:14:40;;;;;;;29.45;18.80;;;;;;;;;;5030685;28;20006;-82
2023/12/26 07:17:05;;;;;;;32.10;17.85;;;;;;;;;;5049125;28;20384;-81
2023/12/26 07:19:30;;;;;;;25.73;15.32;;;;;;;;;;5054525;28;20020;-82
2023/12/26 07:21:58;;;;;;;19.38;11.93;;;;;;;;;;5053719;28;20030;-83
2023/12/26 07:24:23;;;;;;;20.77;13.07;;;;;;;;;;5053863;28;20021;-82
2023/12/26 07:26:49;;;;;;;20.92;13.98;;;;;;;;;;5054996;28;20036;-82
2023/12/26 07:29:15;;;;;;;23.00;12.68;;;;;;;;;;5031529;28;20379;-82
2023/12/26 07:31:41;;;;;;;43.53;25.67;;;;;;;;;;5050953;28;20025;-82
2023/12/26 07:34:09;;;;;;;31.48;19.75;;;;;;;;;;5033183;28;20452;-82
2023/12/26 07:36:34;;;;;;;24.98;15.00;;;;;;;;;;5051132;28;20038;-82
2023/12/26 07:39:00;;;;;;;50.13;25.17;;;;;;;;;;5050303;28;20049;-83
2023/12/26 07:41:25;;;;;;;49.95;25.80;;;;;;;;;;5050514;28;20018;-82
2023/12/26 07:43:52;;;;;;;31.38;16.92;;;;;;;;;;5046027;28;20409;-82
2023/12/26 07:46:18;;;;;;;25.60;14.23;;;;;;;;;;5049753;28;20021;-82
2023/12/26 07:48:43;;;;;;;22.85;15.25;;;;;;;;;;5031620;28;20507;-82
2023/12/26 07:51:10;;;;;;;32.28;19.33;;;;;;;;;;5049321;28;20017;-82
2023/12/26 07:53:35;;;;;;;38.65;21.30;;;;;;;;;;5026465;28;20021;-81
2023/12/26 07:56:00;;;;;;;236.70;126.85;;;;;;;;;;5031186;28;20407;-81
2023/12/26 07:58:26;;;;;;;101.65;55.33;;;;;;;;;;5048733;28;20085;-82
2023/12/26 08:00:51;;;;;;;38.90;17.83;;;;;;;;;;5045557;28;20088;-81
2023/12/26 08:03:16;;;;;;;42.13;19.90;;;;;;;;;;5025255;28;20029;-84
2023/12/26 08:05:42;;;;;;;32.85;19.23;;;;;;;;;;5039647;28;20022;-83
2023/12/26 08:08:09;;;;;;;33.83;22.13;;;;;;;;;;5032918;28;20025;-84
2023/12/26 08:10:34;;;;;;;72.97;46.10;;;;;;;;;;5044618;28;20026;-84
2023/12/26 08:13:00;;;;;;;100.78;63.90;;;;;;;;;;5044046;28;20054;-84
2023/12/26 08:15:26;;;;;;;31.33;19.15;;;;;;;;;;5043922;28;20471;-84
2023/12/26 08:17:51;;;;;;;36.17;22.50;;;;;;;;;;5026367;28;20018;-85
2023/12/26 08:20:17;;;;;;;34.22;20.02;;;;;;;;;;5023134;28;20146;-84
2023/12/26 08:22:42;;;;;;;26.88;16.42;;;;;;;;;;5043415;28;20025;-84
2023/12/26 08:25:09;;;;;;;45.08;28.00;;;;;;;;;;5044184;28;20510;-84
2023/12/26 08:27:34;;;;;;;44.25;27.83;;;;;;;;;;5042258;28;20017;-84
2023/12/26 08:29:59;;;;;;;38.63;18.20;;;;;;;;;;5044134;28;20045;-83
2023/12/26 08:32:24;;;;;;;29.33;18.83;;;;;;;;;;5028313;28;20025;-83
2023/12/26 08:34:50;;;;;;;26.52;15.95;;;;;;;;;;5048419;28;20041;-83
2023/12/26 08:37:16;;;;;;;33.13;21.13;;;;;;;;;;5031211;28;20045;-83
2023/12/26 08:39:41;;;;;;;29.02;17.63;;;;;;;;;;5026228;28;20025;-83
2023/12/26 08:42:07;;;;;;;25.77;16.52;;;;;;;;;;5029327;28;20093;-82
2023/12/26 08:44:32;;;;;;;18.52;12.15;;;;;;;;;;5039019;28;20026;-83
2023/12/26 08:47:01;;;;;;;70.60;44.08;;;;;;;;;;5052639;28;20025;-82
2023/12/26 08:49:26;;;;;;;63.10;41.85;;;;;;;;;;5052592;28;20514;-82
2023/12/26 08:51:53;;;;;;;38.00;24.02;;;;;;;;;;5051967;28;20029;-82
2023/12/26 08:54:20;;;;;;;43.25;29.95;;;;;;;;;;5052487;28;20021;-83
2023/12/26 08:56:45;;;;;;;53.75;35.83;;;;;;;;;;5051123;28;20017;-83
2023/12/26 08:59:11;;;;;;;48.72;31.90;;;;;;;;;;5035085;28;20069;-83
2023/12/26 09:01:36;;;;;;;42.13;27.35;;;;;;;;;;5034814;28;20025;-83
2023/12/26 09:04:02;;;;;;;61.67;37.60;;;;;;;;;;5035717;28;20514;-83
2023/12/26 09:06:28;;;;;;;46.58;28.25;;;;;;;;;;5035394;28;20012;-83
2023/12/26 09:08:53;;;;;;;38.92;24.90;;;;;;;;;;5035927;28;20403;-82
2023/12/26 09:11:18;;;;;;;29.05;19.35;;;;;;;;;;5053502;28;20061;-83
2023/12/26 09:13:44;;;;;;;29.25;18.80;;;;;;;;;;5035861;28;20009;-83
2023/12/26 09:16:09;;;;;;;26.95;17.88;;;;;;;;;;5044920;28;20124;-83
2023/12/26 09:18:35;;;;;;;22.63;15.98;;;;;;;;;;5053889;28;20050;-83
2023/12/26 09:21:00;;;;;;;27.48;18.20;;;;;;;;;;5054171;28;20030;-84
2023/12/26 09:23:25;;;;;;;20.02;13.90;;;;;;;;;;5036355;28;20380;-83
2023/12/26 09:25:51;;;;;;;28.42;18.65;;;;;;;;;;5037107;28;20010;-83
2023/12/26 09:28:16;;;;;;;41.30;29.55;;;;;;;;;;5054420;28;20009;-83
2023/12/26 09:30:42;;;;;;;36.97;24.65;;;;;;;;;;5037065;28;20009;-83
2023/12/26 09:33:07;;;;;;;38.05;25.98;;;;;;;;;;5051748;28;20013;-83
2023/12/26 09:35:32;;;;;;;39.10;25.50;;;;;;;;;;5030517;28;20018;-83
2023/12/26 09:37:58;;;;;;;36.33;26.25;;;;;;;;;;5027541;28;20029;-82
2023/12/26 09:40:23;;;;;;;31.15;22.02;;;;;;;;;;5027712;28;20025;-83
2023/12/26 09:42:49;;;;;;;29.73;20.17;;;;;;;;;;5027477;28;20026;-81
2023/12/26 09:45:14;;;;;;;37.83;26.23;;;;;;;;;;5010457;28;20029;-84
2023/12/26 09:47:43;;;;;;;31.10;22.55;;;;;;;;;;5027451;28;20057;-81
2023/12/26 09:50:09;;;;;;;29.42;23.38;;;;;;;;;;5010362;28;20199;-81
2023/12/26 09:52:39;;;;;;;31.90;22.83;;;;;;;;;;5028054;28;20353;-81
2023/12/26 09:55:04;;;;;;;27.08;20.08;;;;;;;;;;5029115;28;20320;-81
2023/12/26 09:57:30;;;;;;;32.20;25.83;;;;;;;;;;5027972;28;20013;-82
2023/12/26 09:59:55;;;;;;;24.67;19.13;;;;;;;;;;5054919;28;20087;-82
2023/12/26 10:02:21;;;;;;;26.30;17.55;;;;;;;;;;5054419;28;20037;-83
2023/12/26 10:04:46;;;;;;;23.63;16.40;;;;;;;;;;5054881;28;20102;-82
2023/12/26 10:07:14;;;;;;;18.73;12.30;;;;;;;;;;5055390;28;20108;-82
2023/12/26 10:09:40;;;;;;;28.50;16.83;;;;;;;;;;5037773;28;20073;-83
2023/12/26 10:12:05;;;;;;;18.20;13.60;;;;;;;;;;5038081;28;20060;-83
2023/12/26 10:14:30;;;;;;;17.65;11.65;;;;;;;;;;5054152;28;20026;-84
2023/12/26 10:17:06;;;;;;;14.98;10.27;;;;;;;;;;5056203;28;20083;-83
2023/12/26 10:19:31;;;;;;;8.82;4.88;;;;;;;;;;5058894;28;20036;-83
2023/12/26 10:21:57;;;;;;;10.88;6.93;;;;;;;;;;5041229;28;20018;-83
2023/12/26 10:24:22;;;;;;;11.48;5.85;;;;;;;;;;5040027;28;20014;-83
2023/12/26 10:26:48;;;;;;;10.40;5.22;;;;;;;;;;5041684;28;20018;-82
2023/12/26 10:29:13;;;;;;;10.35;6.20;;;;;;;;;;5058451;28;20029;-83
2023/12/26 10:31:44;;;;;;;8.07;5.28;;;;;;;;;;5058258;28;20049;-83
2023/12/26 10:34:22;;;;;;;11.13;5.43;;;;;;;;;;5041388;28;20028;-83
2023/12/26 10:36:48;;;;;;;11.60;7.80;;;;;;;;;;5058612;28;20045;-83
2023/12/26 10:39:15;;;;;;;14.50;9.02;;;;;;;;;;5039356;28;20033;-83
2023/12/26 10:41:44;;;;;;;13.20;9.27;;;;;;;;;;5041366;28;20530;-83
2023/12/26 10:44:17;;;;;;;13.70;7.82;;;;;;;;;;5056248;28;20014;-83
2023/12/26 10:46:42;;;;;;;14.63;8.32;;;;;;;;;;5039780;28;20025;-83
2023/12/26 10:49:12;;;;;;;13.23;6.50;;;;;;;;;;5057536;28;20114;-83
2023/12/26 10:51:44;;;;;;;9.93;6.10;;;;;;;;;;5057984;28;20068;-83
2023/12/26 10:54:14;;;;;;;16.60;10.20;;;;;;;;;;5058522;28;20018;-83
2023/12/26 10:56:40;;;;;;;20.92;11.10;;;;;;;;;;5056527;28;20041;-83
2023/12/26 13:53:06;;;;;;;23.02;12.07;;;;;;;;;;5035727;28;20135;-85
2023/12/26 13:55:31;;;;;;;34.70;15.82;;;;;;;;;;5036755;28;20018;-83
2023/12/26 13:57:56;;;;;;;17.05;8.88;;;;;;;;;;5036191;28;20357;-83
2023/12/26 14:00:21;;;;;;;26.00;10.23;;;;;;;;;;5018633;28;20022;-83
2023/12/26 14:02:47;;;;;;;17.63;10.63;;;;;;;;;;5020821;28;20269;-83
2023/12/26 14:05:12;;;;;;;18.98;11.02;;;;;;;;;;5034205;28;20052;-83
2023/12/26 14:07:37;;;;;;;31.40;16.33;;;;;;;;;;5036226;28;20021;-83
2023/12/26 14:10:03;;;;;;;20.08;11.93;;;;;;;;;;5036481;28;20021;-83
2023/12/26 14:12:28;;;;;;;17.30;10.45;;;;;;;;;;5037016;28;20026;-84
2023/12/26 14:14:54;;;;;;;30.98;16.90;;;;;;;;;;5020327;28;20028;-84
2023/12/26 14:17:19;;;;;;;33.75;16.50;;;;;;;;;;5039590;28;20032;-84
2023/12/26 14:19:44;;;;;;;32.22;18.48;;;;;;;;;;5039694;28;20045;-84
2023/12/26 14:22:10;;;;;;;30.63;18.88;;;;;;;;;;5037576;28;20029;-83
2023/12/26 14:24:37;;;;;;;30.67;20.08;;;;;;;;;;5039533;28;20040;-84
2023/12/26 14:27:06;;;;;;;36.63;22.70;;;;;;;;;;5021795;28;20052;-84
2023/12/26 14:29:31;;;;;;;39.50;22.75;;;;;;;;;;5040194;28;20112;-84
2023/12/26 14:31:56;;;;;;;44.25;26.30;;;;;;;;;;5021582;28;20444;-84
2023/12/26 14:34:21;;;;;;;83.70;44.90;;;;;;;;;;5029329;28;20109;-84
2023/12/26 14:36:47;;;;;;;90.03;48.83;;;;;;;;;;5042353;28;20017;-82
2023/12/26 14:39:15;;;;;;;140.80;80.60;;;;;;;;;;5052013;28;20018;-82
2023/12/26 14:41:48;;;;;;;119.07;79.40;;;;;;;;;;5056133;28;20613;-83
2023/12/26 14:44:13;;;;;;;72.28;48.13;;;;;;;;;;5056104;28;20092;-83
2023/12/26 14:47:12;;;;;;;88.50;50.38;;;;;;;;;;5054187;28;20025;-83
2023/12/26 14:49:37;;;;;;;205.52;122.88;;;;;;;;;;5055525;28;20020;-83
2023/12/26 14:52:03;;;;;;;190.60;111.75;;;;;;;;;;5027902;28;20081;-83
2023/12/26 14:54:29;;;;;;;131.90;76.93;;;;;;;;;;5054746;28;20491;-83
2023/12/26 14:56:54;;;;;;;123.13;74.90;;;;;;;;;;5049829;28;20487;-83
2023/12/26 14:59:21;;;;;;;236.63;140.13;;;;;;;;;;5054775;28;20040;-83
2023/12/26 15:01:46;;;;;;;219.57;130.90;;;;;;;;;;5036515;28;20035;-83
2023/12/26 15:04:12;;;;;;;201.70;123.20;;;;;;;;;;5055314;28;20029;-83
2023/12/26 15:06:48;;;;;;;193.02;119.50;;;;;;;;;;5037130;28;20537;-83
2023/12/26 15:09:14;;;;;;;208.40;126.90;;;;;;;;;;5052265;28;20057;-83
2023/12/26 15:11:40;;;;;;;186.02;114.13;;;;;;;;;;5037721;28;20028;-84
2023/12/26 15:14:06;;;;;;;168.82;105.78;;;;;;;;;;5036804;28;20016;-84
2023/12/26 15:16:32;;;;;;;169.77;106.15;;;;;;;;;;5045567;28;20537;-84
2023/12/26 15:18:57;;;;;;;157.05;89.10;;;;;;;;;;5057663;28;20013;-84
2023/12/26 15:21:23;;;;;;;273.80;162.35;;;;;;;;;;5075347;28;20017;-84
2023/12/26 15:23:51;;;;;;;182.93;105.68;;;;;;;;;;5058395;28;20061;-85
2023/12/26 15:26:16;;;;;;;121.55;73.03;;;;;;;;;;5037844;28;20065;-84
2023/12/26 15:28:42;;;;;;;136.32;85.30;;;;;;;;;;5055378;28;20029;-83
2023/12/26 15:31:14;;;;;;;335.05;159.63;;;;;;;;;;5037932;28;20602;-84
2023/12/26 15:33:42;;;;;;;250.57;123.03;;;;;;;;;;5053673;28;20005;-85
2023/12/26 15:36:07;;;;;;;297.10;155.55;;;;;;;;;;5053714;28;20427;-86
2023/12/26 15:38:33;;;;;;;210.35;121.63;;;;;;;;;;5038219;28;20048;-85
2023/12/26 15:40:58;;;;;;;286.55;162.30;;;;;;;;;;5056742;28;20455;-85
2023/12/26 15:43:23;;;;;;;261.42;149.98;;;;;;;;;;5037933;28;20010;-83
2023/12/26 15:45:49;;;;;;;248.68;144.02;;;;;;;;;;5056893;28;20029;-84
2023/12/26 15:48:14;;;;;;;214.88;132.30;;;;;;;;;;5038914;28;20017;-84
2023/12/26 15:50:41;;;;;;;222.00;122.75;;;;;;;;;;5057356;28;20027;-83
2023/12/26 15:53:07;;;;;;;256.13;146.52;;;;;;;;;;5049842;28;20069;-83
2023/12/26 15:55:32;;;;;;;228.75;113.60;;;;;;;;;;5053195;28;20356;-83
2023/12/26 15:57:57;;;;;;;155.05;104.18;;;;;;;;;;5054287;28;20001;-83
2023/12/26 16:00:23;;;;;;;106.63;63.83;;;;;;;;;;5056052;28;20010;-83
2023/12/26 16:02:48;;;;;;;103.55;61.00;;;;;;;;;;5037827;28;20085;-83
2023/12/26 16:05:13;;;;;;;117.43;70.03;;;;;;;;;;5055907;28;20025;-83
2023/12/26 16:07:39;;;;;;;96.90;59.38;;;;;;;;;;5038535;28;20034;-83
2023/12/26 16:10:09;;;;;;;111.90;63.38;;;;;;;;;;5054954;28;20515;-83
2023/12/26 16:12:34;;;;;;;103.97;62.72;;;;;;;;;;5038438;28;20013;-83
2023/12/26 16:15:00;;;;;;;165.85;89.07;;;;;;;;;;5054379;28;20013;-83
2023/12/26 16:17:25;;;;;;;166.88;102.47;;;;;;;;;;5038516;28;20077;-82
2023/12/26 16:19:52;;;;;;;128.70;76.38;;;;;;;;;;5037076;28;20017;-83
2023/12/26 16:22:17;;;;;;;488.35;206.25;;;;;;;;;;5038917;28;20052;-83
2023/12/26 16:24:43;;;;;;;178.75;92.68;;;;;;;;;;5056041;28;20796;-83
2023/12/26 16:27:08;;;;;;;97.15;57.03;;;;;;;;;;5051429;28;20033;-82
2023/12/26 16:29:39;;;;;;;81.90;50.75;;;;;;;;;;5037366;28;20021;-83
2023/12/26 16:32:04;;;;;;;83.80;48.33;;;;;;;;;;5055008;28;20013;-82
2023/12/26 16:34:30;;;;;;;117.72;69.72;;;;;;;;;;5051612;28;20010;-82
2023/12/26 16:36:55;;;;;;;108.22;61.50;;;;;;;;;;5053867;28;20060;-82
2023/12/26 16:39:20;;;;;;;115.35;68.85;;;;;;;;;;5053864;28;20499;-82
2023/12/26 16:41:58;;;;;;;95.55;53.03;;;;;;;;;;5036126;28;20029;-82
2023/12/26 16:44:23;;;;;;;158.48;91.60;;;;;;;;;;5052727;28;20021;-82
2023/12/26 16:46:50;;;;;;;129.50;78.68;;;;;;;;;;5024742;28;20041;-81
2023/12/26 16:49:15;;;;;;;125.25;64.70;;;;;;;;;;5015861;28;20084;-82
2023/12/26 16:51:41;;;;;;;105.32;61.22;;;;;;;;;;5036937;28;20025;-83
2023/12/26 16:54:09;;;;;;;84.43;50.53;;;;;;;;;;5053331;28;20055;-82
2023/12/26 16:56:34;;;;;;;63.97;36.97;;;;;;;;;;5033178;28;20013;-82
2023/12/26 16:59:00;;;;;;;95.05;52.50;;;;;;;;;;5051961;28;20017;-82
2023/12/26 17:01:25;;;;;;;115.80;70.93;;;;;;;;;;5054178;28;20044;-82
2023/12/26 17:03:50;;;;;;;95.88;51.67;;;;;;;;;;5052405;28;20018;-82
2023/12/26 17:06:16;;;;;;;47.22;24.05;;;;;;;;;;5052072;28;20025;-83
2023/12/26 17:08:42;;;;;;;51.47;32.17;;;;;;;;;;5018684;28;20025;-82